KSTC

St. Cloud Regional Airport

Airport
ICAO code
KSTC
Summary
ICAO Region
NAM
ICAO Territory
Location

St. Cloud, Minnesota,

Coordinates
45° 32' 47" N , 94° 3' 35" W
KCC
Airport CFIT
Altimeter Temperature Error Correction
Airport GND
Aircraft Ground De/Anti Icing
Airport RE
Landing on Contaminated Runways
Metar
KSTC 191253Z 28015G25KT 10SM OVC055 01/M08 A3004 RMK AO2 PK WND 29029/1235 SLP190 T00111078

Description

St. Cloud Regional Airport is a public airport located 6 km east of the central business district of St. Cloud, a city in Stearns County, Minnesota.

Climatology

Humid Continental climate (Köppen climate classification Dfb) - Variable weather patterns and a large seasonal temperature variance. Summers are often warm and humid with frequent thunderstorms and winters can be very cold with frequent snowfall and persistent snow cover.

Runways

Designator Length Width Surface Rops
5/23 914 23 ASP Yes/Yes
13/31 2134 46 CON Yes/Yes

Airport map

Aerial View

SKYbrary Partners:

Safety knowledge contributed by: